Time;durP1;ratioP1;P1;durP2;ratioP2;P2;SDS_P1;SDS_P2;PMS_P1;PMS_P2;Temp;Humidity;BMP_temperature;BMP_pressure;BME280_temperature;BME280_humidity;BME280_pressure;Samples;Min_cycle;Max_cycle;Signal;HPM_P1;HPM_P2
2022/03/02 00:01:35;;;;;;;18.87;13.17;;;-1.40;99.90;;;;;;5043453;28;20199;-62
2022/03/02 00:04:01;;;;;;;15.63;11.83;;;-1.50;99.90;;;;;;5043769;28;20187;-61
2022/03/02 00:06:26;;;;;;;16.67;11.20;;;-1.50;99.90;;;;;;5033044;28;20778;-61
2022/03/02 00:08:52;;;;;;;17.30;12.70;;;-1.60;96.70;;;;;;5044234;28;20249;-62
2022/03/02 00:11:17;;;;;;;16.97;12.10;;;-1.60;99.90;;;;;;5035707;28;20183;-61
2022/03/02 00:13:44;;;;;;;18.13;13.23;;;-1.70;99.90;;;;;;5044263;28;20178;-62
2022/03/02 00:16:10;;;;;;;16.42;12.27;;;-1.70;99.90;;;;;;5037965;28;20174;-61
2022/03/02 00:18:36;;;;;;;14.98;12.32;;;-1.70;99.90;;;;;;5031674;28;20187;-61
2022/03/02 00:21:02;;;;;;;15.43;12.03;;;-1.80;99.90;;;;;;5047965;28;20213;-62
2022/03/02 00:23:28;;;;;;;17.93;13.40;;;-1.80;99.90;;;;;;5035117;28;20669;-61
2022/03/02 00:25:54;;;;;;;18.55;12.68;;;-1.80;99.90;;;;;;5039177;28;20763;-61
2022/03/02 00:28:19;;;;;;;18.13;12.80;;;-1.90;99.90;;;;;;5029955;28;20246;-62
2022/03/02 00:30:45;;;;;;;17.60;13.43;;;-1.90;99.90;;;;;;5035071;28;20174;-61
2022/03/02 00:33:10;;;;;;;16.90;11.80;;;-2.00;1.00;;;;;;5047615;28;20229;-61
2022/03/02 00:35:36;;;;;;;17.60;12.13;;;-2.00;1.00;;;;;;5052354;28;20659;-62
2022/03/02 00:38:03;;;;;;;16.40;11.27;;;-2.00;1.00;;;;;;5031776;28;20190;-61
2022/03/02 00:40:30;;;;;;;17.17;11.82;;;-2.00;1.00;;;;;;5047544;28;20248;-61
2022/03/02 00:42:56;;;;;;;16.20;12.73;;;-2.10;1.00;;;;;;5046258;28;20220;-60
2022/03/02 00:45:22;;;;;;;17.63;11.95;;;-2.10;1.00;;;;;;5048360;28;20528;-61
2022/03/02 00:47:48;;;;;;;16.97;11.80;;;-2.20;1.00;;;;;;5034140;28;20186;-62
2022/03/02 00:50:14;;;;;;;17.47;12.43;;;-2.20;1.00;;;;;;5044526;28;20460;-61
2022/03/02 00:52:40;;;;;;;20.42;13.40;;;-2.20;1.00;;;;;;5038075;28;20448;-61
2022/03/02 00:55:06;;;;;;;18.25;11.40;;;-2.20;1.00;;;;;;5042416;28;20191;-62
2022/03/02 00:57:32;;;;;;;14.60;11.53;;;-2.20;1.00;;;;;;5030804;28;20187;-62
2022/03/02 00:59:58;;;;;;;17.57;11.60;;;-2.20;1.00;;;;;;5032420;28;20537;-60
2022/03/02 01:02:24;;;;;;;16.07;12.03;;;-2.20;1.00;;;;;;5029273;28;20464;-60
2022/03/02 01:04:49;;;;;;;16.13;12.07;;;-2.30;1.00;;;;;;5030469;28;20194;-59
2022/03/02 01:07:15;;;;;;;18.30;12.80;;;-2.20;1.00;;;;;;5030876;28;20645;-60
2022/03/02 01:09:41;;;;;;;16.90;12.20;;;-2.30;1.00;;;;;;5032099;28;20249;-60
2022/03/02 01:12:06;;;;;;;16.43;11.50;;;-2.30;1.00;;;;;;5030890;28;20611;-60
2022/03/02 01:14:32;;;;;;;15.33;11.70;;;-2.30;1.00;;;;;;5032160;28;20685;-60
2022/03/02 01:16:57;;;;;;;18.33;12.30;;;-2.40;1.00;;;;;;5031791;28;20184;-60
2022/03/02 01:19:23;;;;;;;19.67;12.07;;;-2.50;1.00;;;;;;5032031;28;20634;-60
2022/03/02 01:21:48;;;;;;;15.87;11.70;;;-2.60;1.00;;;;;;5027139;28;20266;-60
2022/03/02 01:24:14;;;;;;;17.00;12.37;;;-2.60;1.00;;;;;;5030980;28;20642;-61
2022/03/02 01:26:39;;;;;;;17.77;11.90;;;-2.60;1.00;;;;;;5031193;28;20190;-60
2022/03/02 01:29:06;;;;;;;18.53;13.10;;;-2.60;1.00;;;;;;5033283;28;20203;-60
2022/03/02 01:31:32;;;;;;;21.70;13.30;;;-2.60;1.00;;;;;;5030928;28;20198;-60
2022/03/02 01:33:57;;;;;;;17.10;12.40;;;-2.60;1.00;;;;;;5030914;28;20187;-60
2022/03/02 01:36:24;;;;;;;18.10;12.32;;;-2.60;1.00;;;;;;5044159;28;20206;-60
2022/03/02 01:38:51;;;;;;;17.42;11.65;;;-2.50;1.00;;;;;;5030632;28;20190;-60
2022/03/02 01:41:20;;;;;;;18.90;12.55;;;-2.50;1.00;;;;;;5030935;28;20193;-60
2022/03/02 01:43:46;;;;;;;18.17;12.18;;;-2.50;1.00;;;;;;5031174;28;20198;-60
2022/03/02 01:46:13;;;;;;;22.30;12.95;;;-2.60;1.00;;;;;;5031137;28;20191;-60
2022/03/02 01:48:39;;;;;;;18.58;12.73;;;-2.60;1.00;;;;;;5032827;28;20216;-60
2022/03/02 01:51:05;;;;;;;19.50;13.65;;;-2.60;1.00;;;;;;5040636;28;20252;-60
2022/03/02 01:53:31;;;;;;;18.07;11.70;;;-2.60;1.00;;;;;;5045156;28;20222;-60
2022/03/02 01:55:58;;;;;;;18.55;13.30;;;-2.60;1.00;;;;;;5031063;28;20198;-60
2022/03/02 01:58:24;;;;;;;19.48;13.50;;;-2.70;1.00;;;;;;5044302;28;20267;-60
2022/03/02 02:00:51;;;;;;;17.08;12.15;;;-2.70;1.00;;;;;;5025526;28;20559;-60
2022/03/02 02:03:17;;;;;;;17.27;12.05;;;-2.70;1.00;;;;;;5029769;28;20253;-61
2022/03/02 02:05:42;;;;;;;17.13;12.27;;;-2.70;1.00;;;;;;5033642;28;20619;-61
2022/03/02 02:08:08;;;;;;;21.07;12.47;;;-2.80;1.00;;;;;;5029629;28;20210;-61
2022/03/02 02:10:34;;;;;;;18.17;12.77;;;-2.80;1.00;;;;;;5030970;28;20201;-61
2022/03/02 02:12:59;;;;;;;17.50;12.40;;;-2.80;1.00;;;;;;5028849;28;20270;-61
2022/03/02 02:15:24;;;;;;;18.87;12.90;;;-2.80;1.00;;;;;;5033606;28;20195;-60
2022/03/02 02:17:50;;;;;;;18.93;12.17;;;-2.90;1.00;;;;;;5030159;28;20171;-61
2022/03/02 02:20:16;;;;;;;17.50;12.50;;;-2.90;1.00;;;;;;5032444;28;20175;-61
2022/03/02 02:22:44;;;;;;;19.10;12.87;;;-2.90;1.00;;;;;;5038502;28;20254;-60
2022/03/02 02:25:11;;;;;;;19.90;12.88;;;-3.00;1.00;;;;;;5043753;28;20178;-60
2022/03/02 02:27:38;;;;;;;16.48;12.80;;;-3.00;1.00;;;;;;5036561;28;20178;-61
2022/03/02 02:30:05;;;;;;;18.48;13.18;;;-3.00;1.00;;;;;;5035175;28;20202;-61
2022/03/02 02:32:30;;;;;;;16.15;11.63;;;-3.00;1.00;;;;;;5044194;28;20179;-62
2022/03/02 02:34:57;;;;;;;17.40;12.40;;;-3.00;1.00;;;;;;5028834;28;20183;-61
2022/03/02 02:37:25;;;;;;;16.23;11.40;;;-3.00;1.00;;;;;;5031868;28;20638;-62
2022/03/02 02:39:59;;;;;;;18.55;12.43;;;-3.00;1.00;;;;;;5033574;28;20191;-61
2022/03/02 02:42:25;;;;;;;17.60;12.30;;;-3.10;1.00;;;;;;5029570;28;20292;-61
2022/03/02 02:44:52;;;;;;;22.48;12.90;;;-3.10;1.00;;;;;;5029868;28;20273;-61
2022/03/02 02:47:17;;;;;;;19.75;12.80;;;-3.10;1.00;;;;;;5026467;28;20186;-61
2022/03/02 02:49:43;;;;;;;17.40;12.83;;;-3.10;1.00;;;;;;5029405;28;20755;-61
2022/03/02 02:52:09;;;;;;;22.77;13.90;;;-3.10;1.00;;;;;;5030501;28;20218;-61
2022/03/02 02:54:35;;;;;;;21.27;12.75;;;-3.10;1.00;;;;;;5028252;28;20227;-61
2022/03/02 02:57:00;;;;;;;18.97;12.90;;;-3.10;1.00;;;;;;5028620;28;20249;-61
2022/03/02 02:59:26;;;;;;;17.70;12.20;;;-3.10;1.00;;;;;;5029145;28;20254;-61
2022/03/02 03:01:51;;;;;;;20.63;12.97;;;-3.10;1.00;;;;;;5028760;28;20199;-62
2022/03/02 03:04:17;;;;;;;20.40;12.93;;;-3.10;1.00;;;;;;5029453;28;20238;-61
2022/03/02 03:06:42;;;;;;;19.47;13.50;;;-3.10;1.00;;;;;;5029598;28;20229;-61
2022/03/02 03:09:08;;;;;;;20.53;13.27;;;-3.00;1.00;;;;;;5032426;28;20274;-61
2022/03/02 03:11:38;;;;;;;21.80;13.10;;;-3.00;1.00;;;;;;5036472;28;20186;-61
2022/03/02 03:14:11;;;;;;;19.90;12.68;;;-3.00;1.00;;;;;;5046951;28;20270;-62
2022/03/02 03:16:37;;;;;;;17.77;12.95;;;-3.10;1.00;;;;;;5044380;28;20183;-61
2022/03/02 03:19:03;;;;;;;17.40;12.03;;;-3.10;1.00;;;;;;5032361;28;20644;-61
2022/03/02 03:21:28;;;;;;;21.50;12.93;;;-3.20;1.00;;;;;;5036854;28;20438;-61
2022/03/02 03:23:54;;;;;;;18.10;12.63;;;-3.30;1.00;;;;;;5029367;28;20430;-61
2022/03/02 03:26:20;;;;;;;19.67;13.33;;;-3.20;1.00;;;;;;5035743;28;20182;-61
2022/03/02 03:28:45;;;;;;;18.87;13.73;;;-3.20;1.00;;;;;;5029160;28;20214;-61
2022/03/02 03:31:11;;;;;;;21.67;13.20;;;-3.20;1.00;;;;;;5042856;28;20289;-61
2022/03/02 03:33:36;;;;;;;21.50;12.97;;;-3.20;1.00;;;;;;5047424;28;20185;-61
2022/03/02 03:36:02;;;;;;;19.20;13.03;;;-3.20;1.00;;;;;;5036238;28;20191;-61
2022/03/02 03:38:28;;;;;;;21.93;13.57;;;-3.20;1.00;;;;;;5035278;28;20175;-61
2022/03/02 03:40:53;;;;;;;20.10;13.60;;;-3.20;1.00;;;;;;5042061;28;20186;-61
2022/03/02 03:43:19;;;;;;;22.27;13.80;;;-3.20;1.00;;;;;;5034373;28;20204;-61
2022/03/02 03:45:44;;;;;;;21.60;13.53;;;-3.20;1.00;;;;;;5036665;28;20201;-61
2022/03/02 03:48:10;;;;;;;19.77;13.33;;;-3.20;1.00;;;;;;5043820;28;20198;-61
2022/03/02 03:50:35;;;;;;;22.97;14.13;;;-3.20;1.00;;;;;;5037929;28;20193;-62
2022/03/02 03:53:01;;;;;;;18.83;13.40;;;-3.20;1.00;;;;;;5041128;28;20231;-61
2022/03/02 03:55:27;;;;;;;20.57;13.97;;;-3.30;1.00;;;;;;5037697;28;20182;-62
2022/03/02 03:57:52;;;;;;;19.80;14.03;;;-3.30;1.00;;;;;;5044751;28;20191;-61
2022/03/02 04:00:19;;;;;;;23.17;14.67;;;-3.20;1.00;;;;;;5037668;28;20182;-61
2022/03/02 04:02:45;;;;;;;21.17;14.15;;;-3.30;1.00;;;;;;5043446;28;20187;-61
2022/03/02 04:05:11;;;;;;;22.70;15.98;;;-3.20;1.00;;;;;;5049384;28;21411;-61
2022/03/02 04:07:38;;;;;;;21.20;13.90;;;-3.30;1.00;;;;;;5040790;28;20262;-61
2022/03/02 04:10:08;;;;;;;24.50;14.70;;;-3.20;1.00;;;;;;5035423;28;21170;-61
2022/03/02 04:12:34;;;;;;;23.75;14.65;;;-3.20;1.00;;;;;;5042506;28;20187;-61
2022/03/02 04:14:59;;;;;;;21.02;14.35;;;-3.20;1.00;;;;;;5027782;28;20696;-61
2022/03/02 04:17:25;;;;;;;21.77;15.13;;;-3.20;1.00;;;;;;5046340;28;20191;-61
2022/03/02 04:19:50;;;;;;;23.43;14.80;;;-3.20;1.00;;;;;;5044460;28;20194;-61
2022/03/02 04:22:16;;;;;;;22.13;15.40;;;-3.20;1.00;;;;;;5036008;28;20289;-61
2022/03/02 04:24:42;;;;;;;24.08;15.63;;;-3.20;1.00;;;;;;5045140;28;20182;-61
2022/03/02 04:27:08;;;;;;;23.67;15.00;;;-3.20;1.00;;;;;;5034044;28;20190;-61
2022/03/02 04:29:34;;;;;;;27.10;16.10;;;-3.10;1.00;;;;;;5032523;28;20469;-61
2022/03/02 04:32:00;;;;;;;22.47;14.70;;;-3.10;1.00;;;;;;5036911;28;20198;-61
2022/03/02 04:34:26;;;;;;;19.08;14.95;;;-3.10;1.30;;;;;;5031037;28;20430;-61
2022/03/02 04:36:52;;;;;;;22.70;15.60;;;-3.00;1.00;;;;;;5043188;28;20201;-61
2022/03/02 04:39:17;;;;;;;26.90;15.55;;;-3.00;1.00;;;;;;5049947;28;20213;-61
2022/03/02 04:41:43;;;;;;;26.70;16.33;;;-3.00;1.00;;;;;;5037716;28;20233;-62
2022/03/02 04:44:09;;;;;;;24.73;15.70;;;-3.00;1.00;;;;;;5036147;28;20538;-61
2022/03/02 04:46:34;;;;;;;24.90;16.00;;;-3.00;1.00;;;;;;5037080;28;20908;-61
2022/03/02 04:49:10;;;;;;;26.83;15.77;;;-3.00;1.00;;;;;;5030969;28;20206;-61
2022/03/02 04:51:37;;;;;;;24.67;16.05;;;-2.90;1.00;;;;;;5031607;28;20179;-61
2022/03/02 04:54:03;;;;;;;24.05;16.02;;;-2.90;1.00;;;;;;5043928;28;20221;-61
2022/03/02 04:56:29;;;;;;;26.33;16.65;;;-2.90;1.00;;;;;;5032709;28;20187;-61
2022/03/02 04:58:54;;;;;;;25.53;15.60;;;-2.90;1.00;;;;;;5038579;28;20182;-61
2022/03/02 05:01:20;;;;;;;23.50;14.40;;;-2.90;1.00;;;;;;5034972;28;20194;-61
2022/03/02 05:03:45;;;;;;;24.27;16.37;;;-2.90;1.00;;;;;;5038711;28;20222;-61
2022/03/02 05:06:11;;;;;;;26.80;16.20;;;-2.90;1.00;;;;;;5034293;28;20174;-60
2022/03/02 05:08:37;;;;;;;23.30;15.50;;;-2.90;1.00;;;;;;5027443;28;20200;-60
2022/03/02 05:11:03;;;;;;;24.10;14.73;;;-2.90;1.00;;;;;;5024915;28;20187;-61
2022/03/02 05:13:29;;;;;;;26.67;16.00;;;-2.90;1.00;;;;;;5023771;28;20269;-60
2022/03/02 05:15:54;;;;;;;25.30;16.63;;;-2.80;1.00;;;;;;5022470;28;20187;-62
2022/03/02 05:18:20;;;;;;;24.13;16.07;;;-2.80;1.00;;;;;;5035660;28;20406;-61
2022/03/02 05:20:45;;;;;;;22.60;15.57;;;-2.80;1.00;;;;;;5028662;28;20191;-61
2022/03/02 05:23:11;;;;;;;21.07;15.03;;;-2.70;1.00;;;;;;5022457;28;20191;-60
2022/03/02 05:25:37;;;;;;;22.80;16.00;;;-2.70;1.00;;;;;;5020936;28;20293;-61
2022/03/02 05:28:02;;;;;;;24.83;16.00;;;-2.70;1.00;;;;;;5029066;28;20215;-61
2022/03/02 05:30:28;;;;;;;25.90;16.77;;;-2.70;1.00;;;;;;5024178;28;20289;-61
2022/03/02 05:32:54;;;;;;;26.00;16.50;;;-2.60;1.00;;;;;;5026641;28;20500;-62
2022/03/02 05:35:19;;;;;;;24.90;16.07;;;-2.60;1.00;;;;;;5023242;28;20651;-61
2022/03/02 05:37:45;;;;;;;25.43;16.27;;;-2.60;1.00;;;;;;5027130;28;20222;-61
2022/03/02 05:40:13;;;;;;;26.40;16.53;;;-2.60;1.00;;;;;;5030193;28;20268;-62
2022/03/02 05:42:39;;;;;;;25.90;16.80;;;-2.60;1.00;;;;;;5034810;28;20238;-61
2022/03/02 05:45:05;;;;;;;26.50;15.93;;;-2.60;1.00;;;;;;5030557;28;20195;-63
2022/03/02 05:47:30;;;;;;;24.45;15.90;;;-2.60;1.00;;;;;;5034638;28;20181;-62
2022/03/02 05:49:56;;;;;;;21.93;15.20;;;-2.50;1.00;;;;;;5038594;28;20515;-62
2022/03/02 05:52:21;;;;;;;26.00;16.23;;;-2.50;1.00;;;;;;5034315;28;20179;-62
2022/03/02 05:54:47;;;;;;;26.40;16.23;;;-2.50;1.00;;;;;;5049532;28;20244;-63
2022/03/02 05:57:12;;;;;;;26.90;16.23;;;-2.50;4.00;;;;;;5035453;28;20194;-61
2022/03/02 05:59:38;;;;;;;25.93;16.90;;;-2.40;6.00;;;;;;5036875;28;20198;-60
2022/03/02 06:02:04;;;;;;;27.30;17.83;;;-2.40;2.80;;;;;;5029384;28;20237;-60
2022/03/02 06:04:29;;;;;;;24.30;17.33;;;-2.40;4.40;;;;;;5033415;28;20625;-61
2022/03/02 06:06:55;;;;;;;24.17;15.87;;;-2.30;1.00;;;;;;5034753;28;20464;-60
2022/03/02 06:09:20;;;;;;;29.10;16.53;;;-2.40;1.00;;;;;;5046232;28;20198;-62
2022/03/02 06:11:46;;;;;;;29.20;18.07;;;-2.40;1.00;;;;;;5038742;28;20709;-61
2022/03/02 06:14:12;;;;;;;27.23;16.27;;;-2.20;1.00;;;;;;5043116;28;20190;-61
2022/03/02 06:16:38;;;;;;;27.50;16.47;;;-2.10;1.00;;;;;;5032880;28;20433;-61
2022/03/02 06:19:05;;;;;;;30.30;17.77;;;-2.00;1.00;;;;;;5043827;28;20868;-63
2022/03/02 06:21:32;;;;;;;26.88;17.23;;;-2.00;1.00;;;;;;5047086;28;20420;-61
2022/03/02 06:23:58;;;;;;;25.98;16.92;;;-1.90;1.00;;;;;;5034832;28;20180;-61
2022/03/02 06:26:25;;;;;;;21.60;15.87;;;-1.90;1.00;;;;;;5027686;28;20205;-61
2022/03/02 06:28:51;;;;;;;27.00;17.55;;;-1.90;1.00;;;;;;5024842;28;20461;-62
2022/03/02 06:31:18;;;;;;;25.03;16.07;;;-1.90;1.00;;;;;;5032769;28;20206;-63
2022/03/02 06:33:44;;;;;;;26.63;17.13;;;-1.80;1.00;;;;;;5030198;28;20468;-61
2022/03/02 06:36:10;;;;;;;28.80;16.92;;;-1.80;1.00;;;;;;5041321;28;20202;-62
2022/03/02 06:38:35;;;;;;;23.33;15.60;;;-1.90;1.00;;;;;;5026854;28;20653;-61
2022/03/02 06:41:04;;;;;;;23.27;16.13;;;-1.90;1.00;;;;;;5039083;28;20273;-62
2022/03/02 06:43:38;;;;;;;26.27;16.75;;;-1.90;1.00;;;;;;5031578;28;20216;-62
2022/03/02 06:46:10;;;;;;;29.73;18.30;;;-1.90;1.00;;;;;;5041075;28;20173;-62
2022/03/02 06:49:03;;;;;;;25.77;18.10;;;-1.90;1.00;;;;;;5030012;28;20329;-61
2022/03/02 06:51:31;;;;;;;23.95;16.17;;;-1.90;1.00;;;;;;5032347;28;20691;-62
2022/03/02 06:54:01;;;;;;;26.50;16.83;;;-1.80;1.00;;;;;;5024257;28;20226;-64
2022/03/02 06:56:31;;;;;;;28.25;16.90;;;-1.70;1.00;;;;;;5034076;28;20258;-62
2022/03/02 06:59:01;;;;;;;28.30;17.80;;;-1.70;1.00;;;;;;5050145;28;20186;-62
2022/03/02 07:01:31;;;;;;;25.50;17.60;;;-1.60;1.00;;;;;;5026478;28;20179;-62
2022/03/02 07:03:59;;;;;;;26.15;18.75;;;-1.50;1.00;;;;;;5026644;28;20269;-61
2022/03/02 07:06:26;;;;;;;25.33;18.00;;;-1.40;1.00;;;;;;5029905;28;20197;-61
2022/03/02 07:08:52;;;;;;;28.83;18.40;;;-1.30;1.00;;;;;;5030033;28;20210;-60
2022/03/02 07:11:18;;;;;;;27.77;18.10;;;-1.10;1.00;;;;;;5030512;28;20610;-61
2022/03/02 07:13:48;;;;;;;25.60;17.70;;;-1.00;1.00;;;;;;5033300;28;20187;-61
2022/03/02 07:16:15;;;;;;;27.70;18.98;;;-0.90;1.00;;;;;;5034517;28;20429;-60
2022/03/02 07:18:41;;;;;;;25.85;17.40;;;-0.80;99.90;;;;;;5034131;28;20186;-61
2022/03/02 07:21:13;;;;;;;25.42;17.70;;;-0.60;99.90;;;;;;5032521;28;20212;-60
2022/03/02 07:23:47;;;;;;;29.17;18.45;;;-0.50;1.00;;;;;;5028741;28;20179;-61
2022/03/02 07:26:17;;;;;;;25.95;17.40;;;-0.50;1.00;;;;;;5030728;28;20270;-60
2022/03/02 07:28:46;;;;;;;25.65;17.38;;;-0.60;99.90;;;;;;5034386;28;20900;-61
2022/03/02 07:31:12;;;;;;;24.20;18.00;;;-0.50;99.90;;;;;;5027056;28;20185;-61
2022/03/02 07:33:41;;;;;;;28.80;18.83;;;-0.30;99.90;;;;;;5032921;28;20543;-61
2022/03/02 07:36:11;;;;;;;26.27;18.35;;;-0.20;1.00;;;;;;5046769;28;20605;-61
2022/03/02 07:38:37;;;;;;;26.48;19.00;;;0.00;99.90;;;;;;5033172;28;20492;-61
2022/03/02 07:41:10;;;;;;;25.38;17.92;;;0.10;1.00;;;;;;5035758;28;20544;-61
2022/03/02 07:43:38;;;;;;;23.42;18.13;;;0.20;99.90;;;;;;5023815;28;20186;-61
2022/03/02 07:46:06;;;;;;;26.08;18.60;;;0.40;1.00;;;;;;5036332;28;20554;-60
2022/03/02 07:48:32;;;;;;;23.75;17.98;;;0.40;11.90;;;;;;5042486;28;20198;-60
2022/03/02 07:51:00;;;;;;;27.92;19.08;;;0.40;1.00;;;;;;5028509;28;20179;-60
2022/03/02 07:53:31;;;;;;;25.33;18.85;;;0.40;1.00;;;;;;5030556;28;20235;-60
2022/03/02 07:55:58;;;;;;;27.00;18.88;;;0.60;1.00;;;;;;5043136;28;20232;-60
2022/03/02 07:58:24;;;;;;;27.88;19.48;;;0.60;99.90;;;;;;5032729;28;20191;-60
2022/03/02 08:00:53;;;;;;;24.73;18.88;;;0.70;99.90;;;;;;5037498;28;20188;-60
2022/03/02 08:03:23;;;;;;;26.70;18.95;;;0.80;99.90;;;;;;5040453;28;20210;-60
2022/03/02 08:05:49;;;;;;;26.13;18.83;;;0.80;99.90;;;;;;5032132;28;20266;-60
2022/03/02 08:08:15;;;;;;;25.40;17.37;;;0.90;1.00;;;;;;5031898;28;20299;-60
2022/03/02 08:10:42;;;;;;;25.20;17.67;;;0.90;1.00;;;;;;5038943;28;20261;-60
2022/03/02 08:13:10;;;;;;;26.55;17.52;;;0.90;1.00;;;;;;5052156;28;20440;-60
2022/03/02 08:15:36;;;;;;;26.45;19.20;;;1.10;99.90;;;;;;5031895;28;20186;-60
2022/03/02 08:18:02;;;;;;;25.70;17.90;;;1.00;99.90;;;;;;5031615;28;20261;-60
2022/03/02 08:20:27;;;;;;;27.63;18.10;;;0.90;1.00;;;;;;5032069;28;20657;-60
2022/03/02 08:22:56;;;;;;;26.13;19.67;;;1.00;1.00;;;;;;5032303;28;20166;-60
2022/03/02 08:25:23;;;;;;;26.23;18.15;;;0.90;99.90;;;;;;5030659;28;20174;-60
2022/03/02 08:27:51;;;;;;;30.23;18.98;;;1.00;99.90;;;;;;5032134;28;20171;-60
2022/03/02 08:30:17;;;;;;;28.75;19.08;;;1.10;1.00;;;;;;5030925;28;20198;-60
2022/03/02 08:32:45;;;;;;;22.90;17.60;;;1.20;99.90;;;;;;5032605;28;20968;-60
2022/03/02 08:35:11;;;;;;;26.45;19.48;;;1.50;99.90;;;;;;5026206;28;20186;-60
2022/03/02 08:37:38;;;;;;;25.35;19.20;;;1.70;99.90;;;;;;5043668;28;20177;-60
2022/03/02 08:40:06;;;;;;;27.80;19.77;;;2.00;12.40;;;;;;5033992;28;20190;-60
2022/03/02 08:42:32;;;;;;;28.30;19.95;;;2.40;1.00;;;;;;5030972;28;20198;-60
2022/03/02 08:44:58;;;;;;;24.95;19.65;;;3.00;1.00;;;;;;5031456;28;20519;-60
2022/03/02 08:47:25;;;;;;;25.00;20.35;;;3.70;99.90;;;;;;5030484;28;20556;-61
2022/03/02 08:49:51;;;;;;;27.25;20.90;;;4.20;1.00;;;;;;5031407;28;20573;-60
2022/03/02 08:52:36;;;;;;;26.15;20.50;;;4.80;1.00;;;;;;5030831;28;20672;-60
2022/03/02 08:55:04;;;;;;;23.65;19.85;;;5.60;1.00;;;;;;5030845;28;20206;-60
2022/03/02 08:57:32;;;;;;;24.55;20.42;;;5.90;1.00;;;;;;5028500;28;20250;-60
2022/03/02 08:59:59;;;;;;;25.67;19.47;;;6.60;1.00;;;;;;5023786;28;20658;-60
2022/03/02 09:02:29;;;;;;;26.07;21.00;;;7.30;1.00;;;;;;5030394;28;20476;-60
2022/03/02 09:04:59;;;;;;;22.53;19.90;;;7.60;99.90;;;;;;5031053;28;20413;-60
2022/03/02 09:07:24;;;;;;;21.97;18.90;;;8.10;99.90;;;;;;5031075;28;20409;-60
2022/03/02 09:09:50;;;;;;;22.23;19.83;;;8.50;99.90;;;;;;5039987;28;21342;-61
2022/03/02 09:12:16;;;;;;;24.20;19.93;;;9.20;99.90;;;;;;5037012;28;20187;-60
2022/03/02 09:14:42;;;;;;;23.00;20.10;;;9.30;99.90;;;;;;5042846;28;20189;-60
2022/03/02 09:17:08;;;;;;;23.20;20.70;;;9.40;99.90;;;;;;5029778;28;20527;-60
2022/03/02 09:19:35;;;;;;;23.33;20.83;;;8.80;99.90;;;;;;5034434;28;20432;-60
2022/03/02 09:22:01;;;;;;;22.67;20.10;;;9.10;99.90;;;;;;5042433;28;20578;-61
2022/03/02 09:24:30;;;;;;;23.37;20.93;;;9.30;99.90;;;;;;5044479;28;20467;-60
2022/03/02 09:26:57;;;;;;;23.47;19.77;;;9.40;99.90;;;;;;5039326;28;20423;-60
2022/03/02 09:29:28;;;;;;;23.70;20.83;;;9.80;99.90;;;;;;5028490;28;20960;-60
2022/03/02 09:31:56;;;;;;;21.83;19.50;;;10.70;99.90;;;;;;5041104;28;20969;-60
2022/03/02 09:34:26;;;;;;;22.70;19.23;;;10.80;99.90;;;;;;5049632;28;20447;-61
2022/03/02 09:36:54;;;;;;;21.43;19.30;;;10.70;99.90;;;;;;5040797;28;20424;-60
2022/03/02 09:39:20;;;;;;;21.97;19.57;;;10.80;99.90;;;;;;5046310;28;20433;-61
2022/03/02 09:41:55;;;;;;;21.57;19.27;;;11.30;99.90;;;;;;5032539;28;20442;-60
2022/03/02 09:44:25;;;;;;;19.93;17.90;;;11.50;99.90;;;;;;5047724;28;20497;-59
2022/03/02 09:46:55;;;;;;;21.17;18.93;;;11.70;99.90;;;;;;5032265;28;20608;-60
2022/03/02 09:49:22;;;;;;;20.30;18.30;;;12.40;99.90;;;;;;5045322;28;20465;-60
2022/03/02 09:51:52;;;;;;;21.00;18.93;;;12.70;99.90;;;;;;5041018;28;20445;-61
2022/03/02 09:54:22;;;;;;;20.77;18.53;;;12.40;99.90;;;;;;5043778;28;20461;-60
2022/03/02 09:56:51;;;;;;;19.13;17.37;;;12.70;99.90;;;;;;5019118;28;20445;-60
2022/03/02 09:59:17;;;;;;;20.97;19.00;;;13.20;99.90;;;;;;5042612;28;20460;-60
2022/03/02 10:01:44;;;;;;;20.20;18.10;;;13.90;99.90;;;;;;5034970;28;21169;-61
2022/03/02 10:04:21;;;;;;;21.23;19.10;;;14.50;99.90;;;;;;5050256;28;20444;-62
2022/03/02 10:07:26;;;;;;;20.10;18.10;;;14.10;99.90;;;;;;5029555;28;20528;-60
2022/03/02 10:09:45;;;;;;;20.37;18.47;;;14.20;99.90;;;;;;5029049;28;20870;-60
2022/03/02 10:12:14;;;;;;;20.30;18.50;;;14.80;99.90;;;;;;5041025;28;20426;-60
2022/03/02 10:14:41;;;;;;;19.70;17.70;;;14.80;99.90;;;;;;5045166;28;20484;-60
2022/03/02 10:17:17;;;;;;;20.00;18.10;;;14.20;99.90;;;;;;5022049;28;20499;-60
2022/03/02 10:19:52;;;;;;;21.50;19.43;;;13.60;99.90;;;;;;5028899;28;20744;-60
2022/03/02 10:22:40;;;;;;;19.57;17.60;;;12.50;99.90;;;;;;5036161;28;20409;-60
2022/03/02 10:25:11;;;;;;;19.70;17.80;;;11.90;99.90;;;;;;5049064;28;20419;-60
2022/03/02 10:28:06;;;;;;;20.23;18.00;;;12.00;99.90;;;;;;5032666;28;20452;-60
2022/03/02 10:30:39;;;;;;;20.67;18.57;;;12.50;99.90;;;;;;5018801;28;20429;-60
2022/03/02 10:33:19;;;;;;;21.40;19.10;;;12.80;99.90;;;;;;5043983;28;20481;-60
2022/03/02 10:35:51;;;;;;;20.17;18.13;;;14.00;99.90;;;;;;5049701;28;21043;-60
2022/03/02 10:38:28;;;;;;;20.17;18.10;;;14.30;99.90;;;;;;5031784;28;20501;-60
2022/03/02 10:40:58;;;;;;;20.77;18.70;;;15.00;99.90;;;;;;5042032;28;20439;-60
2022/03/02 10:43:30;;;;;;;20.50;18.47;;;15.00;99.90;;;;;;5029919;28;20429;-60
2022/03/02 10:45:57;;;;;;;19.67;17.77;;;15.20;99.90;;;;;;5028717;28;20422;-60
2022/03/02 10:48:44;;;;;;;19.57;17.60;;;16.50;99.90;;;;;;5028838;28;20425;-60
2022/03/02 10:51:11;;;;;;;19.67;17.83;;;16.50;99.90;;;;;;5029916;28;20437;-60
2022/03/02 10:53:40;;;;;;;19.73;17.93;;;16.70;99.90;;;;;;5029568;28;20489;-60
2022/03/02 10:56:08;;;;;;;20.23;18.27;;;16.40;99.90;;;;;;5028713;28;21022;-60
2022/03/02 10:58:36;;;;;;;20.10;18.20;;;16.00;99.90;;;;;;5029647;28;21012;-59
2022/03/02 11:01:02;;;;;;;19.47;17.67;;;15.80;99.90;;;;;;5029399;28;20459;-60
2022/03/02 11:03:35;;;;;;;19.17;17.40;;;16.30;99.90;;;;;;5029560;28;20869;-60
2022/03/02 11:06:04;;;;;;;18.73;17.03;;;17.40;99.90;;;;;;5028212;28;20873;-60
2022/03/02 11:08:29;;;;;;;18.47;16.67;;;17.00;99.90;;;;;;5029585;28;20835;-59
2022/03/02 11:10:56;;;;;;;18.33;16.70;;;16.80;99.90;;;;;;5028225;28;20441;-60
2022/03/02 11:13:23;;;;;;;18.43;16.60;;;16.80;99.90;;;;;;5028582;28;20598;-60
2022/03/02 11:15:53;;;;;;;18.23;16.50;;;16.70;99.90;;;;;;5028657;28;20430;-60
2022/03/02 11:18:39;;;;;;;17.73;16.13;;;16.60;99.90;;;;;;5028210;28;20456;-60
2022/03/02 11:21:06;;;;;;;17.10;15.50;;;17.10;99.90;;;;;;5027579;28;20442;-60
2022/03/02 11:23:40;;;;;;;15.90;14.40;;;17.70;99.90;;;;;;5028546;28;20830;-60
2022/03/02 11:26:11;;;;;;;16.33;14.93;;;17.80;99.90;;;;;;5028157;28;21238;-60
2022/03/02 11:28:37;;;;;;;17.50;16.03;;;18.10;99.90;;;;;;5028534;28;20458;-59
2022/03/02 11:31:08;;;;;;;17.50;15.80;;;18.70;99.90;;;;;;5029373;28;20402;-60
2022/03/02 11:33:35;;;;;;;16.67;15.07;;;19.20;99.90;;;;;;5029058;28;20430;-60
2022/03/02 11:36:19;;;;;;;17.17;15.57;;;19.40;99.90;;;;;;5029069;28;20433;-60
2022/03/02 11:38:49;;;;;;;17.00;15.60;;;18.30;99.90;;;;;;5038270;28;20437;-61
2022/03/02 11:41:15;;;;;;;17.33;15.67;;;17.50;99.90;;;;;;5041015;28;20432;-61
2022/03/02 11:43:41;;;;;;;17.77;16.17;;;17.60;99.90;;;;;;5036447;28;20451;-61
2022/03/02 11:46:09;;;;;;;18.20;16.40;;;17.60;99.90;;;;;;5043012;28;20431;-60
2022/03/02 11:48:39;;;;;;;17.87;16.27;;;17.50;99.90;;;;;;5046588;28;20978;-61
2022/03/02 11:51:14;;;;;;;17.10;15.70;;;17.60;99.90;;;;;;5034794;28;20418;-61
2022/03/02 11:53:43;;;;;;;18.33;16.57;;;17.20;99.90;;;;;;5021127;28;20477;-60
2022/03/02 11:56:15;;;;;;;17.97;16.27;;;17.10;99.90;;;;;;5033349;28;20536;-61
2022/03/02 11:58:56;;;;;;;16.50;14.93;;;17.70;99.90;;;;;;5039155;28;20449;-61
2022/03/02 12:01:23;;;;;;;16.30;14.80;;;18.50;99.90;;;;;;5032530;28;20418;-61
2022/03/02 12:04:02;;;;;;;17.37;15.87;;;19.50;99.90;;;;;;5032300;28;20427;-61
2022/03/02 12:06:30;;;;;;;16.80;15.30;;;19.30;99.90;;;;;;5040436;28;20521;-61
2022/03/02 12:08:57;;;;;;;17.80;16.17;;;19.20;99.90;;;;;;5031474;28;21038;-61
2022/03/02 12:11:31;;;;;;;15.97;14.47;;;19.10;99.90;;;;;;5036737;28;20451;-61
2022/03/02 12:14:04;;;;;;;17.17;15.57;;;19.50;99.90;;;;;;5031845;28;20411;-61
2022/03/02 12:16:50;;;;;;;15.60;14.30;;;19.50;99.90;;;;;;5014629;28;20410;-61
2022/03/02 12:19:26;;;;;;;15.10;13.80;;;19.70;99.90;;;;;;5029746;28;20522;-61
2022/03/02 12:22:00;;;;;;;16.90;15.40;;;19.10;99.90;;;;;;5029072;28;20479;-61
2022/03/02 12:24:28;;;;;;;17.00;15.60;;;18.40;99.90;;;;;;5030054;28;20417;-61
2022/03/02 12:27:01;;;;;;;18.00;16.20;;;17.60;99.90;;;;;;5031298;28;20595;-61
2022/03/02 12:29:27;;;;;;;17.00;15.40;;;17.50;99.90;;;;;;5032788;28;20465;-61
2022/03/02 12:32:09;;;;;;;16.93;15.20;;;16.70;99.90;;;;;;5031332;28;20414;-60
2022/03/02 12:34:37;;;;;;;17.73;16.20;;;16.30;99.90;;;;;;5048162;28;20186;-61
2022/03/02 12:37:04;;;;;;;16.33;14.73;;;16.30;99.90;;;;;;5030863;28;20505;-60
2022/03/02 12:39:30;;;;;;;17.67;16.07;;;17.10;99.90;;;;;;5029209;28;20456;-61